Time;durP1;ratioP1;P1;durP2;ratioP2;P2;SDS_P1;SDS_P2;PMS_P1;PMS_P2;Temp;Humidity;BMP_temperature;BMP_pressure;BME280_temperature;BME280_humidity;BME280_pressure;Samples;Min_cycle;Max_cycle;Signal;HPM_P1;HPM_P2
2024/01/09 00:00:47;;;;;;;70.57;48.25;;;0.60;99.90;;;;;;4915939;29;20729;-80
2024/01/09 00:03:14;;;;;;;71.45;47.33;;;0.60;1.00;;;;;;4913804;29;20047;-78
2024/01/09 00:05:42;;;;;;;68.65;46.72;;;0.60;1.00;;;;;;4928390;29;20063;-79
2024/01/09 00:08:10;;;;;;;66.53;44.15;;;0.60;1.00;;;;;;4912616;29;20040;-81
2024/01/09 00:10:37;;;;;;;66.53;45.65;;;0.60;1.00;;;;;;4911606;29;20048;-80
2024/01/09 00:13:05;;;;;;;65.35;43.70;;;0.60;1.00;;;;;;4910747;29;20072;-78
2024/01/09 00:15:33;;;;;;;69.28;44.08;;;0.60;1.00;;;;;;4919576;29;21044;-79
2024/01/09 00:18:02;;;;;;;71.00;46.88;;;0.60;1.00;;;;;;4920545;29;20508;-81
2024/01/09 00:20:29;;;;;;;64.18;44.42;;;0.60;1.00;;;;;;4922657;29;20064;-79
2024/01/09 00:22:57;;;;;;;65.90;44.13;;;0.60;99.90;;;;;;4943752;29;20040;-78
2024/01/09 00:25:25;;;;;;;66.50;45.05;;;0.60;1.00;;;;;;4943473;29;20051;-80
2024/01/09 00:27:52;;;;;;;67.07;45.60;;;0.50;1.00;;;;;;4934315;29;20127;-79
2024/01/09 00:30:20;;;;;;;69.97;45.45;;;0.50;99.90;;;;;;4930556;29;20454;-82
2024/01/09 00:32:49;;;;;;;70.78;46.22;;;0.50;1.00;;;;;;4929777;29;20500;-79
2024/01/09 00:35:19;;;;;;;65.68;44.13;;;0.50;1.00;;;;;;4930182;29;20043;-80
2024/01/09 00:37:47;;;;;;;63.95;42.75;;;0.50;99.90;;;;;;4931944;29;20044;-79
2024/01/09 00:40:14;;;;;;;64.45;44.55;;;0.50;1.00;;;;;;4926033;29;20411;-80
2024/01/09 00:42:42;;;;;;;61.95;44.35;;;0.50;1.00;;;;;;4935700;29;20040;-78
2024/01/09 00:45:10;;;;;;;67.40;43.58;;;0.40;99.90;;;;;;4935178;29;20535;-80
2024/01/09 00:47:38;;;;;;;67.63;43.75;;;0.50;99.90;;;;;;4935897;29;20087;-80
2024/01/09 00:50:06;;;;;;;64.65;42.67;;;0.60;1.00;;;;;;4933617;29;20115;-80
2024/01/09 00:52:35;;;;;;;59.75;40.83;;;0.60;99.90;;;;;;4933983;29;20052;-80
2024/01/09 00:55:47;;;;;;;60.28;41.00;;;0.60;1.00;;;;;;4995838;23;20115;-77
2024/01/09 01:12:22;;;;;;;63.53;42.58;;;0.30;1.00;;;;;;4932334;29;20051;-76
2024/01/09 01:15:32;;;;;;;59.25;41.28;;;0.20;99.90;;;;;;4934943;29;20044;-76
2024/01/09 01:19:00;;;;;;;67.20;44.00;;;0.30;99.90;;;;;;4934986;29;20072;-75
2024/01/09 01:26:06;;;;;;;60.20;40.75;;;0.30;99.90;;;;;;4867110;29;20049;-75
2024/01/09 05:53:02;;;;;;;;;;;;;;;;;;;;;
2024/01/09 05:56:34;;;;;;;51.17;33.50;;;-0.80;1.00;;;;;;6136524;23;20330;-77
2024/01/09 06:10:02;;;;;;;52.33;35.22;;;-0.70;1.00;;;;;;5878649;24;20037;-79
2024/01/09 06:16:52;;;;;;;48.35;31.27;;;-0.60;1.00;;;;;;5840337;24;20402;-76
2024/01/09 07:19:53;;;;;;;;;;;;;;;;;;;;;
2024/01/09 07:42:39;;;;;;;;;;;;;;;;;;;;;
2024/01/09 07:46:10;;;;;;;;;;;;;;;;;;;;;
2024/01/09 08:26:02;;;;;;;53.17;33.35;;;0.10;8.60;;;;;;5940621;23;20071;-78
2024/01/09 08:33:06;;;;;;;40.10;26.80;;;0.10;1.00;;;;;;5885806;24;20022;-78
2024/01/09 09:01:55;;;;;;;51.67;32.22;;;0.80;1.00;;;;;;6105456;23;20483;-76
2024/01/09 09:04:38;;;;;;;50.60;31.88;;;0.90;1.00;;;;;;6012460;23;20034;-81
2024/01/09 09:08:15;;;;;;;66.40;40.58;;;1.00;99.90;;;;;;5993070;23;20512;-83
2024/01/09 11:00:16;;;;;;;38.75;26.13;;;0.50;1.00;;;;;;5754829;24;20057;-77
2024/01/09 11:03:14;;;;;;;45.05;29.85;;;0.70;99.90;;;;;;5867677;24;20026;-77
2024/01/09 11:06:33;;;;;;;46.00;29.77;;;0.80;99.90;;;;;;5873991;24;20061;-77
2024/01/09 11:15:44;;;;;;;45.38;29.92;;;1.30;99.90;;;;;;5971769;24;20116;-77
2024/01/09 11:18:38;;;;;;;;;;;1.30;99.90;;;;;;5992967;24;20036;-77
2024/01/09 11:24:48;;;;;;;42.72;28.02;;;1.40;99.90;;;;;;5953315;23;20047;-76
2024/01/09 11:27:18;;;;;;;40.22;26.50;;;1.50;99.90;;;;;;6052915;23;20031;-75
2024/01/09 11:29:51;;;;;;;37.03;25.40;;;1.60;99.90;;;;;;6055627;23;20023;-76
2024/01/09 11:32:30;;;;;;;34.58;24.50;;;1.50;99.90;;;;;;6052731;23;20038;-77
2024/01/09 11:35:11;;;;;;;39.45;23.85;;;1.60;99.90;;;;;;6023001;23;20020;-77
2024/01/09 11:37:41;;;;;;;34.58;23.50;;;1.60;70.90;;;;;;6026717;23;20024;-77
2024/01/09 11:40:12;;;;;;;35.17;22.98;;;1.40;10.40;;;;;;6052448;23;20068;-75
2024/01/09 11:42:43;;;;;;;42.08;27.48;;;1.50;99.90;;;;;;6051229;23;20083;-77
2024/01/09 11:45:13;;;;;;;34.97;22.00;;;1.60;99.90;;;;;;6046922;23;20020;-79
2024/01/09 11:47:55;;;;;;;35.63;23.17;;;1.80;99.90;;;;;;6017332;23;20086;-76
2024/01/09 11:50:33;;;;;;;42.33;26.25;;;1.80;21.10;;;;;;6046883;23;20023;-76
2024/01/09 12:14:27;;;;;;;36.10;24.40;;;0.80;99.90;;;;;;6018834;23;20043;-78
2024/01/09 12:17:20;;;;;;;39.00;25.05;;;0.80;1.00;;;;;;5993285;23;20031;-77
2024/01/09 12:19:53;;;;;;;34.92;21.90;;;0.80;99.90;;;;;;6014829;23;20015;-79
2024/01/09 12:22:22;;;;;;;49.97;29.70;;;0.60;99.90;;;;;;6018357;23;20020;-78
2024/01/09 12:24:52;;;;;;;40.92;25.58;;;0.50;1.00;;;;;;5990968;23;20019;-78
2024/01/09 12:27:21;;;;;;;34.53;23.38;;;0.40;1.00;;;;;;6017636;23;20024;-80
2024/01/09 12:29:49;;;;;;;43.13;26.92;;;0.40;1.00;;;;;;6022368;23;20843;-80
2024/01/09 12:32:20;;;;;;;45.65;28.25;;;0.50;1.00;;;;;;5999250;23;20641;-80
2024/01/09 12:34:49;;;;;;;38.88;24.88;;;0.50;1.00;;;;;;5997598;23;20028;-79
2024/01/09 12:37:18;;;;;;;40.65;26.38;;;0.40;1.00;;;;;;5993392;23;20026;-76
2024/01/09 12:39:47;;;;;;;42.28;27.42;;;0.40;1.00;;;;;;5992662;23;20024;-80
2024/01/09 12:42:16;;;;;;;42.75;27.98;;;0.60;1.00;;;;;;5992453;23;20040;-77
2024/01/09 12:44:46;;;;;;;45.10;28.33;;;0.60;1.00;;;;;;5989154;23;20023;-80
2024/01/09 12:47:22;;;;;;;44.13;28.75;;;0.70;1.00;;;;;;5991499;23;20095;-76
2024/01/09 12:49:52;;;;;;;37.78;23.55;;;0.80;1.00;;;;;;5989258;23;20369;-79
2024/01/09 12:52:20;;;;;;;42.55;26.73;;;0.80;1.00;;;;;;6011396;23;20016;-78
2024/01/09 12:54:49;;;;;;;44.65;27.92;;;0.50;1.00;;;;;;6010919;23;20030;-77
2024/01/09 12:57:17;;;;;;;44.67;27.40;;;0.50;1.00;;;;;;6013690;23;20055;-77
2024/01/09 12:59:56;;;;;;;40.17;25.73;;;0.40;1.00;;;;;;6013826;23;20019;-78
2024/01/09 13:02:31;;;;;;;43.55;27.42;;;0.40;1.00;;;;;;6046949;23;20011;-80
2024/01/09 13:05:13;;;;;;;48.05;29.65;;;0.30;1.00;;;;;;6030934;23;20028;-78
2024/01/09 13:07:42;;;;;;;50.15;31.40;;;0.30;8.50;;;;;;6030293;23;20015;-77
2024/01/09 13:10:12;;;;;;;49.40;30.95;;;0.40;28.20;;;;;;6055593;23;20172;-78
2024/01/09 13:12:40;;;;;;;45.83;29.40;;;0.60;99.90;;;;;;6054075;23;20034;-78
2024/01/09 13:15:11;;;;;;;64.43;38.30;;;0.70;1.00;;;;;;6052454;23;20023;-77
2024/01/09 13:17:44;;;;;;;76.75;44.40;;;0.80;1.00;;;;;;6026793;23;20098;-78
2024/01/09 13:23:20;;;;;;;60.47;36.92;;;0.90;1.00;;;;;;5999583;23;20086;-80
2024/01/09 13:26:05;;;;;;;40.22;27.00;;;1.00;1.00;;;;;;6046855;23;20014;-78
2024/01/09 13:36:40;;;;;;;52.95;31.55;;;0.90;1.00;;;;;;6130763;23;20097;-85
2024/01/09 13:39:14;;;;;;;49.22;31.02;;;1.00;1.00;;;;;;6122786;23;20017;-84
2024/01/09 13:41:42;;;;;;;46.40;30.38;;;1.00;1.00;;;;;;6129893;23;20013;-83
2024/01/09 13:44:10;;;;;;;50.90;31.15;;;1.00;1.00;;;;;;6128692;23;20057;-86
2024/01/09 13:46:38;;;;;;;47.75;30.88;;;1.00;1.00;;;;;;6128744;23;20017;-84
2024/01/09 13:49:16;;;;;;;47.20;29.90;;;1.00;1.00;;;;;;6127996;23;20029;-81
2024/01/09 13:51:45;;;;;;;44.47;28.70;;;1.00;1.00;;;;;;6127539;23;20350;-81
2024/01/09 13:54:14;;;;;;;46.53;31.67;;;0.90;1.00;;;;;;6164742;23;20022;-82
2024/01/09 13:56:41;;;;;;;50.25;32.22;;;0.70;1.00;;;;;;6141342;23;20017;-81
2024/01/09 13:59:09;;;;;;;56.13;34.17;;;0.60;1.00;;;;;;6154638;23;20033;-83
2024/01/09 14:01:36;;;;;;;54.88;32.97;;;0.50;1.00;;;;;;6165108;23;20072;-82
2024/01/09 14:04:05;;;;;;;57.95;36.47;;;0.60;22.40;;;;;;6165301;23;20021;-82
2024/01/09 14:06:33;;;;;;;50.95;31.60;;;0.60;1.00;;;;;;6128049;23;20022;-82
2024/01/09 14:09:07;;;;;;;57.03;35.10;;;0.50;1.00;;;;;;6128811;23;20100;-81
2024/01/09 14:11:34;;;;;;;48.05;30.15;;;0.40;99.90;;;;;;6128519;23;20071;-80
2024/01/09 14:14:02;;;;;;;51.25;31.25;;;0.20;99.90;;;;;;6164952;23;20037;-81
2024/01/09 14:16:29;;;;;;;61.15;37.65;;;0.30;1.00;;;;;;6166219;23;20021;-82
2024/01/09 14:18:57;;;;;;;52.50;33.40;;;0.30;99.90;;;;;;6168824;23;20029;-81
2024/01/09 14:21:25;;;;;;;54.15;34.17;;;0.30;99.90;;;;;;6166719;23;20100;-81
2024/01/09 14:23:52;;;;;;;56.58;36.58;;;0.30;99.90;;;;;;6164742;23;20025;-81
2024/01/09 14:26:21;;;;;;;52.30;32.47;;;0.30;1.00;;;;;;6165458;23;20025;-82
2024/01/09 14:28:51;;;;;;;53.08;34.75;;;0.20;99.90;;;;;;6165341;23;20036;-82
2024/01/09 14:31:18;;;;;;;56.55;35.53;;;0.20;1.00;;;;;;6129864;23;20077;-80
2024/01/09 14:33:46;;;;;;;53.60;33.80;;;0.40;1.00;;;;;;6128324;23;20044;-81
2024/01/09 14:36:17;;;;;;;59.65;36.40;;;0.40;99.90;;;;;;6166043;23;20025;-83
2024/01/09 14:38:46;;;;;;;68.35;41.17;;;0.30;99.90;;;;;;6165909;23;20430;-82
2024/01/09 14:41:16;;;;;;;67.47;39.90;;;0.20;1.00;;;;;;6129217;23;20487;-80
2024/01/09 14:43:48;;;;;;;49.50;31.25;;;0.20;1.00;;;;;;6164914;23;20394;-81
2024/01/09 14:46:17;;;;;;;48.20;29.83;;;0.20;1.00;;;;;;6164827;23;20083;-81
2024/01/09 14:48:45;;;;;;;55.60;34.35;;;0.00;1.00;;;;;;6128632;23;20028;-81
2024/01/09 14:51:14;;;;;;;46.47;29.60;;;0.00;1.00;;;;;;6163927;23;20093;-83
2024/01/09 14:53:41;;;;;;;50.15;30.63;;;-0.20;1.00;;;;;;6134418;23;20028;-83
2024/01/09 14:56:09;;;;;;;49.85;30.98;;;-0.30;1.00;;;;;;6173113;23;20013;-82
2024/01/09 14:58:36;;;;;;;53.38;34.28;;;-0.30;91.90;;;;;;6129599;23;20025;-82
2024/01/09 15:01:15;;;;;;;51.55;32.22;;;-0.50;99.90;;;;;;6165739;23;20064;-82
2024/01/09 15:03:45;;;;;;;50.35;31.20;;;-0.40;1.00;;;;;;6168083;23;20017;-82
2024/01/09 15:06:12;;;;;;;60.33;36.88;;;-0.30;99.90;;;;;;6176787;23;20040;-83
2024/01/09 15:08:40;;;;;;;55.95;35.88;;;-0.20;1.00;;;;;;6143376;23;20478;-82
2024/01/09 15:11:11;;;;;;;50.58;32.85;;;-0.10;1.00;;;;;;6177771;23;20041;-84
2024/01/09 15:13:38;;;;;;;52.05;33.50;;;0.00;99.90;;;;;;6175393;23;20017;-83
2024/01/09 15:16:14;;;;;;;57.75;36.13;;;0.00;1.00;;;;;;6170031;23;20010;-83
2024/01/09 15:18:41;;;;;;;50.28;30.77;;;0.00;1.00;;;;;;6137062;23;20025;-83
2024/01/09 15:21:10;;;;;;;51.88;31.55;;;0.10;1.00;;;;;;6178936;23;20013;-83
2024/01/09 15:23:37;;;;;;;50.08;30.48;;;0.20;1.00;;;;;;6148630;23;20077;-81
2024/01/09 15:26:05;;;;;;;50.00;31.38;;;0.10;1.00;;;;;;6149605;23;20028;-83
2024/01/09 15:28:32;;;;;;;49.47;31.25;;;0.00;1.00;;;;;;6183744;23;20013;-84
2024/01/09 15:31:00;;;;;;;48.38;31.33;;;0.00;1.00;;;;;;6145022;23;20088;-82
2024/01/09 15:33:29;;;;;;;49.15;30.00;;;0.10;1.00;;;;;;6147845;23;20013;-81
2024/01/09 15:35:57;;;;;;;49.63;30.15;;;0.10;1.00;;;;;;6179853;23;20076;-82
2024/01/09 15:38:27;;;;;;;48.38;30.40;;;0.10;1.00;;;;;;6145092;23;20022;-82
2024/01/09 15:40:59;;;;;;;54.75;34.47;;;0.20;1.00;;;;;;6133083;23;20529;-80
2024/01/09 15:43:31;;;;;;;51.92;32.80;;;0.30;1.00;;;;;;6131705;23;20044;-82
2024/01/09 15:45:58;;;;;;;57.70;35.42;;;0.20;1.00;;;;;;6166580;23;20499;-82
2024/01/09 15:48:26;;;;;;;59.15;36.47;;;0.20;1.00;;;;;;6130901;23;20017;-81
2024/01/09 15:50:56;;;;;;;54.58;33.92;;;0.20;1.00;;;;;;6168637;23;20381;-82
2024/01/09 15:53:23;;;;;;;57.80;35.83;;;0.10;99.90;;;;;;6167418;23;20025;-82
2024/01/09 15:55:52;;;;;;;64.85;38.33;;;0.10;1.00;;;;;;6166341;23;20013;-82
2024/01/09 15:58:20;;;;;;;67.65;41.25;;;0.00;1.00;;;;;;6165054;23;20033;-81
2024/01/09 16:00:49;;;;;;;55.88;33.35;;;-0.10;1.00;;;;;;6128081;23;20028;-82
2024/01/09 16:03:19;;;;;;;52.22;31.70;;;-0.30;1.00;;;;;;6129598;23;20017;-80
2024/01/09 16:05:47;;;;;;;59.47;35.17;;;-0.20;1.00;;;;;;6165149;23;20037;-82
2024/01/09 16:08:17;;;;;;;65.28;37.95;;;-0.30;1.00;;;;;;6163948;23;20068;-81
2024/01/09 16:10:45;;;;;;;69.78;41.70;;;-0.20;1.00;;;;;;6126088;23;20079;-80
2024/01/09 16:13:13;;;;;;;64.28;37.65;;;-0.20;1.00;;;;;;6128281;23;20025;-81
2024/01/09 16:15:45;;;;;;;69.13;39.60;;;0.00;21.40;;;;;;6128675;23;20026;-81
2024/01/09 16:18:19;;;;;;;68.95;37.47;;;0.00;1.00;;;;;;6164036;23;20215;-81
2024/01/09 16:20:47;;;;;;;54.70;32.33;;;0.00;1.00;;;;;;6169916;23;20068;-80
2024/01/09 16:23:16;;;;;;;51.75;28.98;;;0.00;1.00;;;;;;6137300;23;20127;-81
2024/01/09 16:25:44;;;;;;;52.10;32.47;;;0.10;1.00;;;;;;6128629;23;20454;-79
2024/01/09 16:28:11;;;;;;;54.42;32.10;;;0.00;1.00;;;;;;6164640;23;20023;-81
2024/01/09 16:30:39;;;;;;;56.42;32.05;;;0.00;1.00;;;;;;6164928;23;20017;-80
2024/01/09 16:33:11;;;;;;;56.75;33.78;;;0.00;99.90;;;;;;6131132;23;20025;-80
2024/01/09 16:35:41;;;;;;;82.82;50.17;;;0.00;1.00;;;;;;6167990;23;20025;-80
2024/01/09 16:38:10;;;;;;;84.00;55.90;;;0.00;1.00;;;;;;6132032;23;20024;-81
2024/01/09 16:40:40;;;;;;;61.42;34.70;;;0.00;1.00;;;;;;6130727;23;20017;-79
2024/01/09 16:43:07;;;;;;;64.30;35.92;;;-0.20;99.90;;;;;;6132395;23;20104;-80
2024/01/09 16:45:45;;;;;;;69.50;38.05;;;-0.30;1.00;;;;;;6137851;23;20073;-81
2024/01/09 16:48:17;;;;;;;62.10;34.30;;;-0.20;1.00;;;;;;6136255;23;20037;-80
2024/01/09 16:50:45;;;;;;;63.38;35.22;;;-0.20;1.00;;;;;;6145203;23;20072;-80
2024/01/09 16:54:00;;;;;;;64.80;34.47;;;-0.10;99.90;;;;;;6177990;23;20044;-81
2024/01/09 16:56:31;;;;;;;;;;;0.00;1.00;;;;;;6172285;23;20018;-81
2024/01/09 16:58:59;;;;;;;66.65;36.17;;;-0.10;1.00;;;;;;6131886;23;19974;-81
2024/01/09 17:01:28;;;;;;;58.88;33.88;;;0.00;1.00;;;;;;6167953;23;20092;-81
2024/01/09 17:04:11;;;;;;;65.20;36.28;;;0.10;1.00;;;;;;6129955;23;20021;-80
2024/01/09 17:06:38;;;;;;;65.18;35.15;;;0.00;1.00;;;;;;6126418;23;20179;-79
2024/01/09 17:09:06;;;;;;;69.43;38.40;;;0.00;1.00;;;;;;6133093;23;20530;-80
2024/01/09 17:11:40;;;;;;;69.00;40.17;;;-0.10;99.90;;;;;;6133687;23;20080;-81
2024/01/09 17:14:08;;;;;;;65.32;37.25;;;-0.10;1.00;;;;;;6135634;23;20014;-80
2024/01/09 17:16:42;;;;;;;67.60;39.55;;;-0.10;1.00;;;;;;6170037;23;20021;-80
2024/01/09 17:19:10;;;;;;;71.88;40.72;;;0.00;1.00;;;;;;6169434;23;20335;-79
2024/01/09 17:21:37;;;;;;;69.00;37.90;;;-0.10;99.90;;;;;;6169228;23;20068;-81
2024/01/09 17:24:05;;;;;;;61.42;34.63;;;0.00;1.00;;;;;;6167058;23;20014;-81
2024/01/09 17:26:35;;;;;;;64.13;37.05;;;0.00;99.90;;;;;;6130946;23;20014;-80
2024/01/09 17:29:04;;;;;;;62.15;38.50;;;0.00;1.00;;;;;;6166675;23;20080;-81
2024/01/09 17:31:32;;;;;;;64.82;37.35;;;-0.10;99.90;;;;;;6165944;23;20021;-80
2024/01/09 17:34:01;;;;;;;48.67;30.35;;;0.00;99.90;;;;;;6131445;23;20077;-81
2024/01/09 17:36:37;;;;;;;50.80;30.50;;;0.00;99.90;;;;;;6130333;23;20022;-80
2024/01/09 17:39:05;;;;;;;52.92;31.08;;;0.00;99.90;;;;;;6125080;23;20072;-80
2024/01/09 17:41:34;;;;;;;53.42;31.73;;;0.00;99.90;;;;;;6127189;23;20096;-80
2024/01/09 17:44:04;;;;;;;50.88;30.83;;;0.00;99.90;;;;;;6161741;23;20072;-81
2024/01/09 17:46:32;;;;;;;50.67;30.75;;;0.00;30.00;;;;;;6162646;23;20017;-79
2024/01/09 17:49:00;;;;;;;55.42;32.60;;;-0.10;99.90;;;;;;6127316;23;20469;-79
2024/01/09 17:51:28;;;;;;;66.30;36.45;;;-0.10;99.90;;;;;;6161137;23;20018;-82
2024/01/09 17:53:59;;;;;;;58.65;35.20;;;-0.20;99.90;;;;;;6021019;23;20023;-78
2024/01/09 17:56:30;;;;;;;56.38;33.83;;;-0.20;99.90;;;;;;6146626;23;20014;-77
2024/01/09 17:59:07;;;;;;;54.58;33.85;;;-0.10;1.00;;;;;;6149343;23;20072;-81
2024/01/09 18:01:55;;;;;;;61.50;35.63;;;0.00;1.00;;;;;;6137642;23;20022;-78
2024/01/09 18:05:24;;;;;;;;;;;;;;;;;;;;;
2024/01/09 18:11:59;;;;;;;57.55;35.90;;;0.10;99.90;;;;;;6155845;23;20052;-85
2024/01/09 18:14:28;;;;;;;72.90;42.67;;;0.10;99.90;;;;;;6145829;23;20041;-83
2024/01/09 18:16:55;;;;;;;64.35;39.85;;;0.00;99.90;;;;;;6173067;23;20014;-85
2024/01/09 18:19:26;;;;;;;55.00;35.38;;;0.00;99.90;;;;;;6143755;23;20020;-88
2024/01/09 18:21:58;;;;;;;67.57;41.40;;;0.10;99.90;;;;;;6151226;23;20014;-89
2024/01/09 18:24:26;;;;;;;74.25;44.00;;;0.10;99.90;;;;;;6135448;23;20025;-82
2024/01/09 18:26:55;;;;;;;59.92;36.50;;;0.10;99.90;;;;;;6161830;23;20029;-81
2024/01/09 18:29:24;;;;;;;63.65;39.03;;;0.10;99.90;;;;;;6162678;23;20084;-79
2024/01/09 18:31:53;;;;;;;69.95;40.00;;;0.00;99.90;;;;;;6164250;23;20017;-80
2024/01/09 18:34:20;;;;;;;65.25;39.85;;;0.10;99.90;;;;;;6127362;23;20020;-79
2024/01/09 18:36:49;;;;;;;63.33;39.35;;;0.10;1.00;;;;;;6162917;23;20153;-81
2024/01/09 18:39:19;;;;;;;67.68;39.40;;;0.10;99.90;;;;;;6162513;23;20018;-81
2024/01/09 18:41:48;;;;;;;65.65;40.58;;;0.20;99.90;;;;;;6164821;23;20027;-81
2024/01/09 18:44:18;;;;;;;72.15;40.78;;;0.20;99.90;;;;;;6165662;23;20017;-82
2024/01/09 18:46:48;;;;;;;68.10;38.28;;;0.10;99.90;;;;;;6127843;23;20091;-80
2024/01/09 18:49:20;;;;;;;81.25;48.28;;;0.10;99.90;;;;;;6129487;23;20287;-81
2024/01/09 18:51:48;;;;;;;67.45;39.67;;;0.10;99.90;;;;;;6168877;23;20045;-83
2024/01/09 18:57:49;;;;;;;70.72;42.22;;;0.10;99.90;;;;;;6033843;23;20028;-82
2024/01/09 19:00:27;;;;;;;73.65;42.88;;;0.20;99.90;;;;;;6129566;23;20069;-82
2024/01/09 19:03:04;;;;;;;73.32;42.92;;;0.20;99.90;;;;;;6163682;23;20018;-81
2024/01/09 19:05:33;;;;;;;70.53;41.65;;;0.10;99.90;;;;;;6127494;23;20101;-80
2024/01/09 19:08:01;;;;;;;78.28;44.55;;;0.10;99.90;;;;;;6164304;23;20029;-81
2024/01/09 19:10:29;;;;;;;79.47;46.78;;;0.10;99.90;;;;;;6137545;23;20014;-80
2024/01/09 19:12:57;;;;;;;72.25;43.60;;;0.10;99.90;;;;;;6170175;23;20018;-80
2024/01/09 19:15:24;;;;;;;69.60;41.05;;;0.10;1.00;;;;;;6139857;23;20021;-81
2024/01/09 19:17:52;;;;;;;71.95;41.92;;;0.10;99.90;;;;;;6169193;23;20017;-80
2024/01/09 19:20:23;;;;;;;75.28;44.33;;;0.20;1.00;;;;;;6169117;23;20013;-80
2024/01/09 19:22:55;;;;;;;72.05;42.60;;;0.20;1.00;;;;;;6164140;23;20088;-78
2024/01/09 19:25:24;;;;;;;73.05;43.20;;;0.20;99.90;;;;;;6163895;23;20017;-79
2024/01/09 19:27:51;;;;;;;71.43;41.55;;;0.20;1.00;;;;;;6128272;23;20017;-80
2024/01/09 19:30:20;;;;;;;70.03;41.88;;;0.20;99.90;;;;;;6166064;23;20048;-80
2024/01/09 19:32:48;;;;;;;78.03;45.33;;;0.30;99.90;;;;;;6167058;23;20442;-79
2024/01/09 19:35:17;;;;;;;74.22;43.53;;;0.30;99.90;;;;;;6164027;23;20016;-80
2024/01/09 19:37:46;;;;;;;67.80;40.55;;;0.30;99.90;;;;;;6165184;23;20025;-79
2024/01/09 19:40:19;;;;;;;67.90;41.15;;;0.30;99.90;;;;;;6164633;23;20033;-80
2024/01/09 19:42:54;;;;;;;73.68;43.63;;;0.20;99.90;;;;;;6164843;23;20013;-79
2024/01/09 19:45:23;;;;;;;80.78;47.15;;;0.20;99.90;;;;;;6164248;23;20017;-80
2024/01/09 19:47:51;;;;;;;90.20;50.90;;;0.20;99.90;;;;;;6163453;23;20013;-81
2024/01/09 19:50:21;;;;;;;96.93;53.90;;;0.20;99.90;;;;;;6163902;23;20072;-80
2024/01/09 19:52:56;;;;;;;82.20;49.45;;;0.20;99.90;;;;;;6163448;23;20021;-79
2024/01/09 19:55:25;;;;;;;82.45;47.95;;;0.20;99.90;;;;;;6165103;23;20014;-79
2024/01/09 19:57:56;;;;;;;75.88;41.83;;;0.20;99.90;;;;;;6164964;23;20463;-80
2024/01/09 20:00:24;;;;;;;71.68;40.42;;;0.20;99.90;;;;;;6168579;23;20013;-81
2024/01/09 20:02:51;;;;;;;73.70;42.90;;;0.20;99.90;;;;;;6167986;23;20023;-82
2024/01/09 20:05:19;;;;;;;73.50;41.80;;;0.20;99.90;;;;;;6167809;23;20022;-81
2024/01/09 20:07:48;;;;;;;75.72;43.67;;;0.20;99.90;;;;;;6169982;23;20082;-82
2024/01/09 20:10:16;;;;;;;83.78;44.92;;;0.20;99.90;;;;;;6146767;23;20446;-82
2024/01/09 20:12:47;;;;;;;89.35;49.80;;;0.20;99.90;;;;;;6171860;23;20081;-81
2024/01/09 20:15:16;;;;;;;85.13;47.50;;;0.20;99.90;;;;;;6172605;23;20092;-82
2024/01/09 20:17:44;;;;;;;90.88;51.63;;;0.30;99.90;;;;;;6129396;23;20449;-81
2024/01/09 20:20:17;;;;;;;89.68;53.42;;;0.30;99.90;;;;;;6164761;23;20096;-80
2024/01/09 20:22:47;;;;;;;97.13;56.55;;;0.20;99.90;;;;;;6166399;23;20048;-83
2024/01/09 20:25:17;;;;;;;90.78;53.15;;;0.20;99.90;;;;;;6166318;23;20093;-83
2024/01/09 20:31:36;;;;;;;82.43;48.25;;;0.20;99.90;;;;;;6101801;23;20026;-82
2024/01/09 20:34:09;;;;;;;85.53;49.22;;;0.20;99.90;;;;;;6163114;23;20013;-83
2024/01/09 20:36:43;;;;;;;79.45;46.47;;;0.10;99.90;;;;;;6126460;23;20013;-81
2024/01/09 20:39:19;;;;;;;72.10;40.42;;;0.10;99.90;;;;;;6162072;23;20075;-84
2024/01/09 20:42:03;;;;;;;77.25;44.47;;;0.10;99.90;;;;;;6162419;23;20027;-85
2024/01/09 20:45:17;;;;;;;75.57;41.88;;;0.00;99.90;;;;;;6125947;23;20060;-84
2024/01/09 20:48:31;;;;;;;76.18;41.50;;;0.20;1.00;;;;;;6124308;23;20018;-83
2024/01/09 20:50:59;;;;;;;77.80;43.20;;;0.10;99.90;;;;;;6162656;23;20014;-81
2024/01/09 20:53:27;;;;;;;76.72;41.20;;;0.00;99.90;;;;;;6162653;23;20060;-81
2024/01/09 20:55:56;;;;;;;104.28;53.15;;;0.00;99.90;;;;;;6164402;23;20044;-83
2024/01/09 20:58:27;;;;;;;89.45;48.38;;;0.00;99.90;;;;;;6164161;23;20088;-82
2024/01/09 21:01:19;;;;;;;93.78;48.63;;;0.00;99.90;;;;;;6103782;23;20108;-81
2024/01/09 21:04:04;;;;;;;96.88;50.28;;;0.00;99.90;;;;;;6163430;23;20018;-83
2024/01/09 21:06:33;;;;;;;95.18;50.25;;;0.00;99.90;;;;;;6166180;23;20017;-82
2024/01/09 21:09:03;;;;;;;93.93;48.78;;;-0.20;99.90;;;;;;6163372;23;20081;-82
2024/01/09 21:11:34;;;;;;;93.50;49.20;;;-0.20;99.90;;;;;;6170813;23;20013;-81
2024/01/09 21:14:11;;;;;;;98.07;50.55;;;-0.30;1.00;;;;;;6171634;23;20033;-82
2024/01/09 21:16:39;;;;;;;108.47;52.90;;;-0.30;1.00;;;;;;6166334;23;20017;-82
2024/01/09 21:19:08;;;;;;;95.60;48.13;;;-0.30;1.00;;;;;;6127049;23;20025;-82
2024/01/09 21:21:36;;;;;;;96.70;49.28;;;-0.30;1.00;;;;;;6128428;23;20103;-81
2024/01/09 21:24:03;;;;;;;91.55;48.33;;;-0.40;1.00;;;;;;6162279;23;20010;-80
2024/01/09 21:26:44;;;;;;;103.50;53.45;;;-0.50;1.00;;;;;;6167147;23;20077;-83
2024/01/09 21:29:18;;;;;;;111.05;55.63;;;-0.50;92.60;;;;;;6166091;23;20092;-81
2024/01/09 21:31:48;;;;;;;106.80;55.15;;;-0.50;99.90;;;;;;6165278;23;20045;-81
2024/01/09 21:34:18;;;;;;;112.45;56.92;;;-0.50;99.90;;;;;;6125432;23;20442;-81
2024/01/09 21:36:46;;;;;;;149.38;71.57;;;-0.30;99.90;;;;;;6162412;23;20017;-80
2024/01/09 21:39:15;;;;;;;153.85;74.13;;;-0.30;65.40;;;;;;6164305;23;20426;-81
2024/01/09 21:42:07;;;;;;;167.00;79.70;;;-0.30;1.00;;;;;;6165518;23;20805;-81
2024/01/09 21:44:42;;;;;;;151.98;75.50;;;-0.40;1.00;;;;;;6136752;23;20377;-81
2024/01/09 21:47:10;;;;;;;96.50;51.13;;;-0.30;1.00;;;;;;6168127;23;20029;-81
2024/01/09 21:49:39;;;;;;;100.65;52.33;;;-0.30;1.00;;;;;;6170498;23;20026;-82
2024/01/09 21:52:08;;;;;;;128.65;65.38;;;-0.40;1.00;;;;;;6171384;23;20015;-84
2024/01/09 21:54:45;;;;;;;107.70;55.45;;;-0.70;1.00;;;;;;6130263;23;20014;-83
2024/01/09 21:57:15;;;;;;;92.20;49.92;;;-0.70;99.90;;;;;;6167438;23;20044;-81
2024/01/09 21:59:43;;;;;;;81.53;46.42;;;-0.60;99.90;;;;;;6123864;23;20025;-84
2024/01/09 22:02:14;;;;;;;90.40;47.80;;;-0.50;99.90;;;;;;6121463;23;20021;-83
2024/01/09 22:04:45;;;;;;;105.80;57.03;;;-0.50;40.20;;;;;;6162634;23;20021;-80
2024/01/09 22:07:14;;;;;;;90.40;51.28;;;-0.60;1.00;;;;;;6177439;23;20017;-85
2024/01/09 22:09:41;;;;;;;89.97;50.67;;;-0.70;1.00;;;;;;6130991;23;20021;-83
2024/01/09 22:12:11;;;;;;;90.93;52.08;;;-0.70;74.50;;;;;;6128566;23;20391;-83
2024/01/09 22:14:45;;;;;;;77.97;46.70;;;-0.70;43.20;;;;;;6163382;23;20018;-83
2024/01/09 22:17:16;;;;;;;77.72;44.15;;;-0.70;55.50;;;;;;6127969;23;20064;-83
2024/01/09 22:19:47;;;;;;;87.47;48.65;;;-0.70;1.00;;;;;;6164635;23;20017;-85
2024/01/09 22:22:17;;;;;;;124.47;65.13;;;-0.80;1.00;;;;;;6129132;23;20093;-84
2024/01/09 22:24:55;;;;;;;114.90;64.07;;;-0.90;1.00;;;;;;6163045;23;20039;-83
2024/01/09 22:28:11;;;;;;;;;;;;;;;;;;;;;
2024/01/09 22:30:41;;;;;;;101.70;57.28;;;-0.90;99.90;;;;;;6120819;23;20021;-82
2024/01/09 22:33:10;;;;;;;88.25;51.35;;;-0.90;99.90;;;;;;6165910;23;20341;-83
2024/01/09 22:35:47;;;;;;;84.05;50.92;;;-1.00;99.10;;;;;;6128237;23;20101;-84
2024/01/09 22:38:15;;;;;;;104.45;58.38;;;-1.00;99.90;;;;;;6128273;23;20074;-82
2024/01/09 22:40:52;;;;;;;115.03;64.10;;;-1.00;99.90;;;;;;6126950;23;20108;-83
2024/01/09 22:43:28;;;;;;;112.82;62.47;;;-1.10;99.90;;;;;;6128227;23;20438;-84
2024/01/09 22:46:01;;;;;;;113.18;64.70;;;-1.20;99.90;;;;;;6127583;23;20137;-82
2024/01/09 22:48:28;;;;;;;141.52;76.85;;;-1.30;1.00;;;;;;6165591;23;20044;-82
2024/01/09 22:50:58;;;;;;;189.75;98.70;;;-1.40;1.00;;;;;;6170072;23;20422;-83
2024/01/09 22:59:04;;;;;;;172.60;91.65;;;-1.70;32.60;;;;;;6054884;23;20272;-87
2024/01/09 23:01:35;;;;;;;139.35;75.28;;;-1.70;99.90;;;;;;6041694;23;20035;-89
2024/01/09 23:04:03;;;;;;;216.95;107.22;;;-1.80;99.90;;;;;;6015238;23;20372;-88
2024/01/09 23:06:33;;;;;;;161.25;88.72;;;-1.60;1.00;;;;;;6015198;23;20039;-83
2024/01/09 23:09:03;;;;;;;172.57;90.55;;;-1.50;99.90;;;;;;6049286;23;20046;-86
2024/01/09 23:11:37;;;;;;;156.85;84.20;;;-1.50;1.00;;;;;;6050020;23;20463;-88
2024/01/09 23:14:06;;;;;;;154.38;82.38;;;-1.60;1.00;;;;;;6038652;23;20441;-80
2024/01/09 23:16:43;;;;;;;153.00;82.63;;;-1.70;1.00;;;;;;6050355;23;20358;-81
2024/01/09 23:19:13;;;;;;;129.35;70.28;;;-1.70;1.00;;;;;;6035975;23;20019;-79
2024/01/09 23:21:42;;;;;;;151.27;80.20;;;-1.80;1.00;;;;;;6047005;23;20065;-81
2024/01/09 23:24:13;;;;;;;142.48;79.65;;;-1.90;1.00;;;;;;6011580;23;20045;-80
2024/01/09 23:26:40;;;;;;;130.43;72.82;;;-2.00;1.00;;;;;;6047395;23;20016;-81
2024/01/09 23:29:31;;;;;;;130.68;70.82;;;-2.00;1.00;;;;;;6047156;23;20043;-80